createdAt,value
2023-04-04T00:00:27.920Z,0.00
2023-04-04T00:01:27.881Z,0.00
2023-04-04T00:02:28.099Z,0.00
2023-04-04T00:03:27.938Z,0.00
2023-04-04T00:04:27.937Z,0.00
2023-04-04T00:05:27.860Z,0.00
2023-04-04T00:06:27.860Z,0.00
2023-04-04T00:07:27.834Z,0.00
2023-04-04T00:08:27.921Z,0.00
2023-04-04T00:09:27.777Z,0.00
2023-04-04T00:10:27.808Z,0.00
2023-04-04T00:11:27.753Z,0.00
2023-04-04T00:12:29.812Z,0.00
2023-04-04T00:13:27.742Z,0.00
2023-04-04T00:14:27.770Z,0.00
2023-04-04T00:15:27.732Z,0.00
2023-04-04T00:16:27.793Z,0.00
2023-04-04T00:17:27.693Z,0.00
2023-04-04T00:18:27.701Z,0.00
2023-04-04T00:19:27.675Z,0.00
2023-04-04T00:20:27.709Z,0.00
2023-04-04T00:21:27.635Z,0.00
2023-04-04T00:22:27.654Z,0.00
2023-04-04T00:23:27.590Z,0.00
2023-04-04T00:24:27.658Z,0.00
2023-04-04T00:25:27.591Z,0.00
2023-04-04T00:26:27.594Z,0.00
2023-04-04T00:27:27.566Z,0.00
2023-04-04T00:28:27.575Z,0.00
2023-04-04T00:29:27.518Z,0.00
2023-04-04T00:30:27.549Z,0.00
2023-04-04T00:31:27.570Z,0.00
2023-04-04T00:32:27.588Z,0.00
2023-04-04T00:33:27.548Z,0.00
2023-04-04T00:34:27.493Z,0.00
2023-04-04T00:35:27.478Z,0.00
2023-04-04T00:36:27.491Z,0.00
2023-04-04T00:37:27.431Z,0.00
2023-04-04T00:38:27.528Z,0.00
2023-04-04T00:39:27.414Z,0.00
2023-04-04T00:40:27.404Z,0.00
2023-04-04T00:41:27.355Z,0.00
2023-04-04T00:42:27.413Z,0.00
2023-04-04T00:43:27.324Z,0.00
2023-04-04T00:44:27.402Z,0.00
2023-04-04T00:45:27.378Z,0.00
2023-04-04T00:46:27.311Z,0.00
2023-04-04T00:47:27.322Z,0.00
2023-04-04T00:48:27.332Z,0.00
2023-04-04T00:49:27.252Z,0.00
2023-04-04T00:50:27.338Z,0.00
2023-04-04T00:51:27.221Z,0.00
2023-04-04T00:52:27.314Z,0.00
2023-04-04T00:53:27.238Z,0.00
2023-04-04T00:54:27.206Z,0.00
2023-04-04T00:55:27.239Z,0.00
2023-04-04T00:56:27.321Z,0.00
2023-04-04T00:57:27.150Z,0.00
2023-04-04T00:58:27.209Z,0.00
2023-04-04T00:59:27.198Z,0.00
2023-04-04T01:00:27.155Z,0.00
2023-04-04T01:01:27.206Z,0.00
2023-04-04T01:02:27.166Z,0.00
2023-04-04T01:03:27.090Z,0.00
2023-04-04T01:04:27.157Z,0.00
2023-04-04T01:05:27.068Z,0.00
2023-04-04T01:06:27.054Z,0.00
2023-04-04T01:07:27.055Z,0.00
2023-04-04T01:08:27.090Z,0.00
2023-04-04T01:09:26.995Z,0.00
2023-04-04T01:10:27.035Z,0.00
2023-04-04T01:11:26.981Z,0.00
2023-04-04T01:12:27.002Z,0.00
2023-04-04T01:13:26.963Z,0.00
2023-04-04T01:14:26.997Z,0.00
2023-04-04T01:15:26.945Z,0.00
2023-04-04T01:16:26.968Z,0.00
2023-04-04T01:17:26.884Z,0.00
2023-04-04T01:18:26.925Z,0.00
2023-04-04T01:19:26.891Z,0.00
2023-04-04T01:20:26.988Z,0.00
2023-04-04T01:21:26.828Z,0.00
2023-04-04T01:22:26.870Z,0.00
2023-04-04T01:23:26.804Z,0.00
2023-04-04T01:24:26.869Z,0.00
2023-04-04T01:25:26.796Z,0.00
2023-04-04T01:26:26.820Z,0.00
2023-04-04T01:27:26.778Z,0.00
2023-04-04T01:28:26.763Z,0.00
2023-04-04T01:29:26.726Z,0.00
2023-04-04T01:30:26.776Z,0.00
2023-04-04T01:31:26.766Z,0.00
2023-04-04T01:32:26.793Z,0.00
2023-04-04T01:33:26.707Z,0.00
2023-04-04T01:34:26.689Z,0.00
2023-04-04T01:35:26.660Z,0.00
2023-04-04T01:36:26.702Z,0.00
2023-04-04T01:37:26.643Z,0.00
2023-04-04T01:38:26.688Z,0.00
2023-04-04T01:39:26.618Z,0.00
2023-04-04T01:40:26.622Z,0.00
2023-04-04T01:41:26.588Z,0.00
2023-04-04T01:42:26.609Z,0.00
2023-04-04T01:43:26.550Z,0.00
2023-04-04T01:44:26.644Z,0.00
2023-04-04T01:45:26.541Z,0.00
2023-04-04T01:46:26.585Z,0.00
2023-04-04T01:47:26.546Z,0.00
2023-04-04T01:48:26.503Z,0.00
2023-04-04T01:49:26.470Z,0.00
2023-04-04T01:50:26.540Z,0.00
2023-04-04T01:51:26.441Z,0.00
2023-04-04T01:52:26.478Z,0.00
2023-04-04T01:53:26.447Z,0.00
2023-04-04T01:54:26.427Z,0.00
2023-04-04T01:55:26.416Z,0.00
2023-04-04T01:56:26.442Z,0.00
2023-04-04T01:57:26.362Z,0.00
2023-04-04T01:58:26.414Z,0.00
2023-04-04T01:59:26.357Z,0.00
2023-04-04T02:00:26.373Z,0.00
2023-04-04T02:01:26.369Z,0.00
2023-04-04T02:02:26.381Z,0.00
2023-04-04T02:03:26.313Z,0.00
2023-04-04T02:04:26.429Z,0.00
2023-04-04T02:05:26.254Z,0.00
2023-04-04T02:06:26.296Z,0.00
2023-04-04T02:07:26.270Z,0.00
2023-04-04T02:08:26.365Z,0.00
2023-04-04T02:09:26.209Z,0.00
2023-04-04T02:10:26.255Z,0.00
2023-04-04T02:11:26.193Z,0.00
2023-04-04T02:12:26.216Z,0.00
2023-04-04T02:13:26.199Z,0.00
2023-04-04T02:14:26.218Z,0.00
2023-04-04T02:15:26.166Z,0.00
2023-04-04T02:16:26.171Z,0.00
2023-04-04T02:17:26.143Z,0.00
2023-04-04T02:18:26.145Z,0.00
2023-04-04T02:19:26.078Z,0.00
2023-04-04T02:20:26.166Z,0.00
2023-04-04T02:21:26.069Z,0.00
2023-04-04T02:22:26.064Z,0.00
2023-04-04T02:23:26.046Z,0.00
2023-04-04T02:24:26.061Z,0.00
2023-04-04T02:25:26.031Z,0.00
2023-04-04T02:26:26.157Z,0.00
2023-04-04T02:27:25.997Z,0.00
2023-04-04T02:28:25.990Z,0.00
2023-04-04T02:29:25.967Z,0.00
2023-04-04T02:30:25.980Z,0.00
2023-04-04T02:31:25.983Z,0.00
2023-04-04T02:32:26.038Z,0.00
2023-04-04T02:33:25.912Z,0.00
2023-04-04T02:34:25.917Z,0.00
2023-04-04T02:35:25.896Z,0.00
2023-04-04T02:36:25.901Z,0.00
2023-04-04T02:37:25.846Z,0.00
2023-04-04T02:38:25.928Z,0.00
2023-04-04T02:39:25.859Z,7.00
2023-04-04T02:40:25.854Z,0.00
2023-04-04T02:41:25.797Z,0.00
2023-04-04T02:42:25.834Z,0.00
2023-04-04T02:43:25.791Z,0.00
2023-04-04T02:44:25.837Z,0.00
2023-04-04T02:45:25.779Z,0.00
2023-04-04T02:46:25.794Z,0.00
2023-04-04T02:47:25.793Z,0.00
2023-04-04T02:48:25.759Z,0.00
2023-04-04T02:49:25.709Z,0.00
2023-04-04T02:50:25.753Z,0.00
2023-04-04T02:51:25.669Z,0.00
2023-04-04T02:52:25.718Z,0.00
2023-04-04T02:53:25.670Z,0.00
2023-04-04T02:54:25.661Z,0.00
2023-04-04T02:55:25.640Z,0.00
2023-04-04T02:56:25.667Z,0.00
2023-04-04T02:57:25.596Z,0.00
2023-04-04T02:58:25.619Z,0.00
2023-04-04T02:59:25.671Z,0.00
2023-04-04T03:00:25.608Z,0.00
2023-04-04T03:01:25.618Z,0.00
2023-04-04T03:02:25.692Z,0.00
2023-04-04T03:03:25.787Z,0.00
2023-04-04T03:04:25.526Z,0.00
2023-04-04T03:05:25.480Z,0.00
2023-04-04T03:06:25.529Z,0.00
2023-04-04T03:07:25.462Z,0.00
2023-04-04T03:08:25.529Z,0.00
2023-04-04T03:09:25.493Z,0.00
2023-04-04T03:10:25.442Z,0.00
2023-04-04T03:11:25.412Z,0.00
2023-04-04T03:12:25.466Z,0.00
2023-04-04T03:13:25.428Z,0.00
2023-04-04T03:14:25.429Z,0.00
2023-04-04T03:15:25.382Z,0.00
2023-04-04T03:16:25.439Z,0.00
2023-04-04T03:17:25.342Z,0.00
2023-04-04T03:18:25.365Z,0.00
2023-04-04T03:19:25.338Z,0.00
2023-04-04T03:20:25.456Z,0.00
2023-04-04T03:21:25.296Z,0.00
2023-04-04T03:22:25.283Z,0.00
2023-04-04T03:23:25.275Z,0.00
2023-04-04T03:24:25.264Z,0.00
2023-04-04T03:25:25.225Z,0.00
2023-04-04T03:26:25.377Z,0.00
2023-04-04T03:27:25.223Z,0.00
2023-04-04T03:28:25.205Z,0.00
2023-04-04T03:29:25.191Z,0.00
2023-04-04T03:30:25.202Z,0.00
2023-04-04T03:31:25.265Z,0.00
2023-04-04T03:32:25.245Z,7.00
2023-04-04T03:33:25.142Z,0.00
2023-04-04T03:34:25.125Z,0.00
2023-04-04T03:35:25.165Z,0.00
2023-04-04T03:36:25.098Z,0.00
2023-04-04T03:37:25.066Z,0.00
2023-04-04T03:38:25.146Z,0.00
2023-04-04T03:39:25.059Z,0.00
2023-04-04T03:40:25.080Z,0.00
2023-04-04T03:41:25.033Z,0.00
2023-04-04T03:42:25.050Z,0.00
2023-04-04T03:43:24.984Z,0.00
2023-04-04T03:44:25.140Z,0.00
2023-04-04T03:45:25.007Z,0.00
2023-04-04T03:46:25.002Z,0.00
2023-04-04T03:47:24.980Z,0.00
2023-04-04T03:48:24.971Z,0.00
2023-04-04T03:49:24.913Z,0.00
2023-04-04T03:50:24.984Z,0.00
2023-04-04T03:51:24.909Z,0.00
2023-04-04T03:52:24.917Z,0.00
2023-04-04T03:53:24.869Z,0.00
2023-04-04T03:54:24.893Z,0.00
2023-04-04T03:55:24.841Z,0.00
2023-04-04T03:56:24.966Z,0.00
2023-04-04T03:57:24.833Z,0.00
2023-04-04T03:58:24.833Z,0.00
2023-04-04T03:59:24.896Z,0.00
2023-04-04T04:00:24.785Z,0.00
2023-04-04T04:01:24.807Z,0.00
2023-04-04T04:02:24.772Z,0.00
2023-04-04T04:03:24.911Z,0.00
2023-04-04T04:04:24.723Z,0.00
2023-04-04T04:05:24.715Z,0.00
2023-04-04T04:06:24.707Z,0.00
2023-04-04T04:07:24.703Z,0.00
2023-04-04T04:08:25.354Z,0.00
2023-04-04T04:09:24.695Z,0.00
2023-04-04T04:10:24.636Z,0.00
2023-04-04T04:11:24.672Z,0.00
2023-04-04T04:12:24.611Z,0.00
2023-04-04T04:13:24.621Z,0.00
2023-04-04T04:14:24.715Z,0.00
2023-04-04T04:15:24.625Z,0.00
2023-04-04T04:16:24.589Z,0.00
2023-04-04T04:17:24.611Z,1.00
2023-04-04T04:18:24.554Z,1.00
2023-04-04T04:19:24.561Z,0.00
2023-04-04T04:20:24.645Z,0.00
2023-04-04T04:21:24.547Z,0.00
2023-04-04T04:22:24.480Z,2.00
2023-04-04T04:23:24.522Z,2.00
2023-04-04T04:24:24.468Z,2.00
2023-04-04T04:25:24.464Z,0.00
2023-04-04T04:26:24.476Z,0.00
2023-04-04T04:27:24.432Z,4.00
2023-04-04T04:28:24.412Z,2.00
2023-04-04T04:29:25.451Z,6.00
2023-04-04T04:30:24.387Z,5.00
2023-04-04T04:31:24.403Z,3.00
2023-04-04T04:32:24.502Z,9.00
2023-04-04T04:33:24.380Z,7.00
2023-04-04T04:34:24.318Z,16.00
2023-04-04T04:35:24.367Z,10.00
2023-04-04T04:36:24.323Z,23.00
2023-04-04T04:37:24.311Z,19.00
2023-04-04T04:38:24.392Z,28.00
2023-04-04T04:39:24.286Z,30.00
2023-04-04T04:40:24.271Z,35.00
2023-04-04T04:41:24.275Z,42.00
2023-04-04T04:42:24.244Z,39.00
2023-04-04T04:43:24.267Z,61.00
2023-04-04T04:44:24.215Z,75.00
2023-04-04T04:45:24.223Z,82.00
2023-04-04T04:46:24.269Z,94.00
2023-04-04T04:47:24.291Z,113.00
2023-04-04T04:48:24.141Z,125.00
2023-04-04T04:49:24.181Z,147.00
2023-04-04T04:50:24.259Z,161.00
2023-04-04T04:51:24.152Z,177.00
2023-04-04T04:52:24.107Z,203.00
2023-04-04T04:53:24.125Z,213.00
2023-04-04T04:54:24.060Z,246.00
2023-04-04T04:55:24.097Z,278.00
2023-04-04T04:56:24.076Z,296.00
2023-04-04T04:57:24.078Z,313.00
2023-04-04T04:58:24.731Z,336.00
2023-04-04T04:59:24.083Z,358.00
2023-04-04T05:00:24.006Z,385.00
2023-04-04T05:01:24.189Z,410.00
2023-04-04T05:02:24.134Z,435.00
2023-04-04T05:03:24.022Z,467.00
2023-04-04T05:04:23.932Z,491.00
2023-04-04T05:05:23.942Z,526.00
2023-04-04T05:06:23.939Z,563.00
2023-04-04T05:07:23.940Z,602.00
2023-04-04T05:08:24.014Z,646.00
2023-04-04T05:09:23.921Z,695.00
2023-04-04T05:10:23.854Z,747.00
2023-04-04T05:11:23.896Z,787.00
2023-04-04T05:12:23.823Z,831.00
2023-04-04T05:13:23.869Z,873.00
2023-04-04T05:14:23.865Z,930.00
2023-04-04T05:15:23.810Z,981.00
2023-04-04T05:16:23.840Z,1039.00
2023-04-04T05:17:23.851Z,1079.00
2023-04-04T05:18:26.492Z,1130.00
2023-04-04T05:19:23.836Z,1170.00
2023-04-04T05:20:23.870Z,1233.00
2023-04-04T05:21:23.785Z,1271.00
2023-04-04T05:22:23.705Z,1326.00
2023-04-04T05:23:23.751Z,1374.00
2023-04-04T05:24:23.708Z,1425.00
2023-04-04T05:25:23.700Z,1471.00
2023-04-04T05:26:23.712Z,1533.00
2023-04-04T05:27:23.678Z,1586.00
2023-04-04T05:28:23.715Z,1642.00
2023-04-04T05:29:23.674Z,1690.00
2023-04-04T05:30:23.624Z,1757.00
2023-04-04T05:31:23.686Z,1809.00
2023-04-04T05:32:23.638Z,1873.00
2023-04-04T05:33:23.612Z,1944.00
2023-04-04T05:34:23.583Z,1998.00
2023-04-04T05:35:23.662Z,2062.00
2023-04-04T05:36:23.602Z,2109.00
2023-04-04T05:37:23.533Z,2165.00
2023-04-04T05:38:23.634Z,2221.00
2023-04-04T05:39:23.528Z,2279.00
2023-04-04T05:40:23.528Z,2327.00
2023-04-04T05:41:23.519Z,2365.00
2023-04-04T05:42:23.458Z,2441.00
2023-04-04T05:43:24.211Z,2502.00
2023-04-04T05:44:23.544Z,2569.00
2023-04-04T05:45:23.440Z,2649.00
2023-04-04T05:46:23.450Z,2718.00
2023-04-04T05:47:23.443Z,2802.00
2023-04-04T05:48:23.401Z,2869.00
2023-04-04T05:49:23.409Z,2926.00
2023-04-04T05:50:23.482Z,2973.00
2023-04-04T05:51:23.350Z,3024.00
2023-04-04T05:52:23.345Z,3069.00
2023-04-04T05:53:23.390Z,3079.00
2023-04-04T05:54:23.281Z,3101.00
2023-04-04T05:55:23.340Z,3124.00
2023-04-04T05:56:23.416Z,3149.00
2023-04-04T05:57:24.227Z,3187.00
2023-04-04T05:58:23.269Z,3218.00
2023-04-04T05:59:23.297Z,3256.00
2023-04-04T06:00:23.277Z,3304.00
2023-04-04T06:01:23.259Z,3363.00
2023-04-04T06:02:23.383Z,3410.00
2023-04-04T06:03:23.314Z,3479.00
2023-04-04T06:04:23.165Z,3582.00
2023-04-04T06:05:23.184Z,3681.00
2023-04-04T06:06:23.174Z,3784.00
2023-04-04T06:07:23.163Z,3900.00
2023-04-04T06:08:23.171Z,3996.00
2023-04-04T06:09:23.164Z,4072.00
2023-04-04T06:10:23.108Z,4124.00
2023-04-04T06:11:23.133Z,4145.00
2023-04-04T06:12:23.054Z,4141.00
2023-04-04T06:13:23.072Z,4128.00
2023-04-04T06:14:23.115Z,4163.00
2023-04-04T06:15:23.054Z,4226.00
2023-04-04T06:16:23.162Z,4310.00
2023-04-04T06:17:23.047Z,4397.00
2023-04-04T06:18:22.978Z,4475.00
2023-04-04T06:19:23.028Z,4538.00
2023-04-04T06:20:23.072Z,4645.00
2023-04-04T06:21:22.966Z,4747.00
2023-04-04T06:22:22.961Z,4779.00
2023-04-04T06:23:22.963Z,4819.00
2023-04-04T06:24:22.942Z,4847.00
2023-04-04T06:25:22.913Z,4947.00
2023-04-04T06:26:23.021Z,5135.00
2023-04-04T06:27:22.909Z,5227.00
2023-04-04T06:28:22.903Z,5203.00
2023-04-04T06:29:22.897Z,5217.00
2023-04-04T06:30:22.821Z,5257.00
2023-04-04T06:31:22.922Z,5316.00
2023-04-04T06:32:22.909Z,5436.00
2023-04-04T06:33:22.838Z,5506.00
2023-04-04T06:34:22.819Z,5516.00
2023-04-04T06:35:22.785Z,5497.00
2023-04-04T06:36:22.835Z,5547.00
2023-04-04T06:37:22.777Z,5598.00
2023-04-04T06:38:22.848Z,5667.00
2023-04-04T06:39:22.758Z,5745.00
2023-04-04T06:40:22.758Z,5813.00
2023-04-04T06:41:22.744Z,5896.00
2023-04-04T06:42:22.683Z,5974.00
2023-04-04T06:43:22.728Z,6021.00
2023-04-04T06:44:22.679Z,6069.00
2023-04-04T06:45:22.669Z,6086.00
2023-04-04T06:46:22.681Z,6093.00
2023-04-04T06:47:22.846Z,6116.00
2023-04-04T06:48:22.638Z,6132.00
2023-04-04T06:49:22.629Z,6145.00
2023-04-04T06:50:22.634Z,6168.00
2023-04-04T06:51:22.603Z,6141.00
2023-04-04T06:52:22.537Z,6106.00
2023-04-04T06:53:22.575Z,6077.00
2023-04-04T06:54:22.531Z,6042.00
2023-04-04T06:55:22.548Z,6000.00
2023-04-04T06:56:22.518Z,5968.00
2023-04-04T06:57:22.482Z,5945.00
2023-04-04T06:58:22.503Z,5955.00
2023-04-04T06:59:22.539Z,5937.00
2023-04-04T07:00:22.457Z,5902.00
2023-04-04T07:01:22.506Z,5868.00
2023-04-04T07:02:22.446Z,5857.00
2023-04-04T07:03:22.493Z,5859.00
2023-04-04T07:04:22.368Z,5849.00
2023-04-04T07:05:22.388Z,5844.00
2023-04-04T07:06:24.580Z,5835.00
2023-04-04T07:07:22.383Z,5827.00
2023-04-04T07:08:22.371Z,5834.00
2023-04-04T07:09:29.340Z,5830.00
2023-04-04T07:10:23.317Z,5807.00
2023-04-04T07:11:22.353Z,5806.00
2023-04-04T07:12:22.269Z,5792.00
2023-04-04T07:13:22.287Z,5786.00
2023-04-04T07:14:22.296Z,5779.00
2023-04-04T07:15:22.276Z,5777.00
2023-04-04T07:16:22.262Z,5772.00
2023-04-04T07:17:25.197Z,5798.00
2023-04-04T07:18:22.190Z,5803.00
2023-04-04T07:19:22.265Z,5816.00
2023-04-04T07:20:22.196Z,5832.00
2023-04-04T07:21:22.182Z,5863.00
2023-04-04T07:22:22.177Z,5873.00
2023-04-04T07:23:22.177Z,5897.00
2023-04-04T07:24:22.144Z,5922.00
2023-04-04T07:25:22.154Z,5944.00
2023-04-04T07:26:22.116Z,5954.00
2023-04-04T07:27:22.120Z,5966.00
2023-04-04T07:28:22.099Z,5958.00
2023-04-04T07:29:22.116Z,5941.00
2023-04-04T07:30:22.050Z,5918.00
2023-04-04T07:31:22.119Z,5913.00
2023-04-04T07:32:24.287Z,5920.00
2023-04-04T07:33:22.022Z,5937.00
2023-04-04T07:34:22.011Z,5941.00
2023-04-04T07:35:22.019Z,5933.00
2023-04-04T07:36:21.985Z,5948.00
2023-04-04T07:37:22.003Z,5957.00
2023-04-04T07:38:21.966Z,5996.00
2023-04-04T07:39:22.002Z,6030.00
2023-04-04T07:40:21.902Z,6046.00
2023-04-04T07:41:21.933Z,6050.00
2023-04-04T07:42:21.901Z,6053.00
2023-04-04T07:43:21.902Z,6034.00
2023-04-04T07:44:22.000Z,6047.00
2023-04-04T07:45:21.858Z,6077.00
2023-04-04T07:46:21.878Z,6107.00
2023-04-04T07:47:21.845Z,6143.00
2023-04-04T07:48:22.985Z,6190.00
2023-04-04T07:49:21.829Z,6242.00
2023-04-04T07:50:21.894Z,6250.00
2023-04-04T07:51:21.824Z,6142.00
2023-04-04T07:52:21.738Z,6214.00
2023-04-04T07:53:21.749Z,6395.00
2023-04-04T07:54:21.738Z,6402.00
2023-04-04T07:55:21.722Z,6429.00
2023-04-04T07:56:21.754Z,6447.00
2023-04-04T07:57:21.728Z,6456.00
2023-04-04T07:58:21.688Z,6507.00
2023-04-04T07:59:21.790Z,6531.00
2023-04-04T08:00:21.876Z,6557.00
2023-04-04T08:01:21.689Z,6560.00
2023-04-04T08:02:21.742Z,6576.00
2023-04-04T08:03:21.756Z,6600.00
2023-04-04T08:04:21.612Z,6629.00
2023-04-04T08:05:21.586Z,6662.00
2023-04-04T08:06:21.598Z,6677.00
2023-04-04T08:07:21.554Z,6696.00
2023-04-04T08:08:21.585Z,6747.00
2023-04-04T08:09:21.564Z,6769.00
2023-04-04T08:10:21.499Z,6776.00
2023-04-04T08:11:21.584Z,6810.00
2023-04-04T08:12:21.459Z,6813.00
2023-04-04T08:13:21.466Z,6832.00
2023-04-04T08:14:21.512Z,6850.00
2023-04-04T08:15:21.449Z,6837.00
2023-04-04T08:16:21.475Z,6830.00
2023-04-04T08:17:21.387Z,6806.00
2023-04-04T08:18:21.468Z,6796.00
2023-04-04T08:19:21.379Z,6786.00
2023-04-04T08:20:21.527Z,6781.00
2023-04-04T08:21:21.372Z,6767.00
2023-04-04T08:22:21.382Z,6743.00
2023-04-04T08:23:21.346Z,6746.00
2023-04-04T08:24:21.334Z,6739.00
2023-04-04T08:25:21.276Z,6714.00
2023-04-04T08:26:21.445Z,6707.00
2023-04-04T08:27:21.280Z,6702.00
2023-04-04T08:28:21.349Z,6689.00
2023-04-04T08:29:21.264Z,6696.00
2023-04-04T08:30:21.242Z,6698.00
2023-04-04T08:31:21.276Z,6700.00
2023-04-04T08:32:21.289Z,6691.00
2023-04-04T08:33:21.240Z,6720.00
2023-04-04T08:34:21.200Z,6713.00
2023-04-04T08:35:21.204Z,6708.00
2023-04-04T08:36:21.194Z,6725.00
2023-04-04T08:37:21.129Z,6732.00
2023-04-04T08:38:21.208Z,6740.00
2023-04-04T08:39:21.099Z,6753.00
2023-04-04T08:40:21.145Z,6773.00
2023-04-04T08:41:21.146Z,6757.00
2023-04-04T08:42:21.104Z,6773.00
2023-04-04T08:43:21.075Z,6797.00
2023-04-04T08:44:21.091Z,6805.00
2023-04-04T08:45:21.026Z,6826.00
2023-04-04T08:46:21.083Z,6844.00
2023-04-04T08:47:21.020Z,6873.00
2023-04-04T08:48:21.007Z,6901.00
2023-04-04T08:49:20.972Z,6927.00
2023-04-04T08:50:21.062Z,6940.00
2023-04-04T08:51:20.972Z,6959.00
2023-04-04T08:52:20.985Z,6968.00
2023-04-04T08:53:20.953Z,6967.00
2023-04-04T08:54:20.926Z,6964.00
2023-04-04T08:55:20.926Z,6950.00
2023-04-04T08:56:20.929Z,6938.00
2023-04-04T08:57:20.875Z,6889.00
2023-04-04T08:58:20.906Z,6859.00
2023-04-04T08:59:20.918Z,6862.00
2023-04-04T09:00:20.915Z,6880.00
2023-04-04T09:01:20.904Z,6913.00
2023-04-04T09:02:20.921Z,6927.00
2023-04-04T09:03:20.832Z,6937.00
2023-04-04T09:04:20.824Z,6957.00
2023-04-04T09:05:20.777Z,6989.00
2023-04-04T09:06:20.811Z,6997.00
2023-04-04T09:07:20.762Z,7024.00
2023-04-04T09:08:20.795Z,7068.00
2023-04-04T09:09:20.723Z,7073.00
2023-04-04T09:10:21.000Z,7092.00
2023-04-04T09:11:20.676Z,7120.00
2023-04-04T09:12:20.721Z,7128.00
2023-04-04T09:13:20.695Z,7127.00
2023-04-04T09:14:20.727Z,7155.00
2023-04-04T09:15:20.665Z,7141.00
2023-04-04T09:16:20.658Z,7105.00
2023-04-04T09:17:20.603Z,7116.00
2023-04-04T09:18:20.673Z,7089.00
2023-04-04T09:19:20.569Z,7093.00
2023-04-04T09:20:20.650Z,7100.00
2023-04-04T09:21:20.583Z,7081.00
2023-04-04T09:22:20.560Z,7078.00
2023-04-04T09:23:20.983Z,7085.00
2023-04-04T09:24:20.535Z,7120.00
2023-04-04T09:25:20.493Z,7010.00
2023-04-04T09:26:20.569Z,7230.00
2023-04-04T09:27:20.488Z,7290.00
2023-04-04T09:28:20.504Z,7393.00
2023-04-04T09:29:20.451Z,7462.00
2023-04-04T09:30:20.460Z,7648.00
2023-04-04T09:31:20.435Z,7822.00
2023-04-04T09:32:20.484Z,8120.00
2023-04-04T09:33:20.390Z,8306.00
2023-04-04T09:34:20.449Z,8390.00
2023-04-04T09:35:20.374Z,8414.00
2023-04-04T09:36:20.708Z,8334.00
2023-04-04T09:37:20.318Z,8192.00
2023-04-04T09:38:20.417Z,8054.00
2023-04-04T09:39:20.305Z,8042.00
2023-04-04T09:40:20.393Z,8109.00
2023-04-04T09:41:20.284Z,8097.00
2023-04-04T09:42:20.290Z,8175.00
2023-04-04T09:43:20.296Z,8307.00
2023-04-04T09:44:20.292Z,7872.00
2023-04-04T09:45:43.733Z,7377.00
2023-04-04T09:46:21.286Z,7774.00
2023-04-04T09:47:29.992Z,8483.00
2023-04-04T09:48:21.224Z,8713.00
2023-04-04T09:49:20.605Z,8351.00
2023-04-04T09:50:20.225Z,8262.00
2023-04-04T09:51:20.148Z,8767.00
2023-04-04T09:52:20.179Z,8777.00
2023-04-04T09:53:20.168Z,8625.00
2023-04-04T09:54:28.924Z,8596.00
2023-04-04T09:55:21.166Z,8544.00
2023-04-04T09:56:20.109Z,8473.00
2023-04-04T09:57:20.068Z,8685.00
2023-04-04T09:58:20.094Z,8992.00
2023-04-04T09:59:20.042Z,8976.00
2023-04-04T10:00:20.087Z,9289.00
2023-04-04T10:01:20.083Z,9509.00
2023-04-04T10:02:20.012Z,9714.00
2023-04-04T10:03:19.988Z,9786.00
2023-04-04T10:04:20.041Z,9614.00
2023-04-04T10:05:19.978Z,9094.00
2023-04-04T10:06:19.996Z,8835.00
2023-04-04T10:07:20.063Z,8019.00
2023-04-04T10:08:19.935Z,8674.00
2023-04-04T10:09:19.901Z,7592.00
2023-04-04T10:10:19.956Z,7251.00
2023-04-04T10:11:19.857Z,7784.00
2023-04-04T10:12:19.899Z,7483.00
2023-04-04T10:13:19.988Z,7444.00
2023-04-04T10:14:19.850Z,7971.00
2023-04-04T10:15:19.837Z,7008.00
2023-04-04T10:16:20.017Z,7186.00
2023-04-04T10:17:19.802Z,8081.00
2023-04-04T10:18:19.833Z,7897.00
2023-04-04T10:19:19.802Z,8029.00
2023-04-04T10:20:19.801Z,7985.00
2023-04-04T10:21:19.748Z,7988.00
2023-04-04T10:22:19.759Z,7944.00
2023-04-04T10:23:19.752Z,7904.00
2023-04-04T10:24:19.732Z,7793.00
2023-04-04T10:25:19.723Z,7687.00
2023-04-04T10:26:19.834Z,7664.00
2023-04-04T10:27:19.643Z,7637.00
2023-04-04T10:28:19.685Z,7627.00
2023-04-04T10:29:20.377Z,7578.00
2023-04-04T10:30:19.666Z,7594.00
2023-04-04T10:31:19.722Z,7566.00
2023-04-04T10:32:19.604Z,7573.00
2023-04-04T10:33:19.582Z,7673.00
2023-04-04T10:34:19.621Z,7765.00
2023-04-04T10:35:19.536Z,7844.00
2023-04-04T10:36:19.602Z,7805.00
2023-04-04T10:37:19.660Z,7647.00
2023-04-04T10:38:19.519Z,7583.00
2023-04-04T10:39:19.491Z,7544.00
2023-04-04T10:40:19.604Z,7540.00
2023-04-04T10:41:19.498Z,7504.00
2023-04-04T10:42:19.473Z,7498.00
2023-04-04T10:43:19.581Z,7519.00
2023-04-04T10:44:19.452Z,7548.00
2023-04-04T10:45:21.490Z,7546.00
2023-04-04T10:46:19.489Z,7552.00
2023-04-04T10:47:19.384Z,7558.00
2023-04-04T10:48:19.424Z,7548.00
2023-04-04T10:49:19.454Z,7506.00
2023-04-04T10:50:19.733Z,7516.00
2023-04-04T10:51:19.361Z,7521.00
2023-04-04T10:52:19.370Z,7509.00
2023-04-04T10:53:19.322Z,7515.00
2023-04-04T10:54:19.339Z,7503.00
2023-04-04T10:55:19.332Z,7516.00
2023-04-04T10:56:19.290Z,7535.00
2023-04-04T10:57:19.268Z,7535.00
2023-04-04T10:58:19.289Z,7556.00
2023-04-04T10:59:19.282Z,7544.00
2023-04-04T11:00:19.272Z,7575.00
2023-04-04T11:01:19.380Z,7629.00
2023-04-04T11:02:19.200Z,7661.00
2023-04-04T11:03:19.203Z,7706.00
2023-04-04T11:04:21.207Z,7742.00
2023-04-04T11:05:19.129Z,7759.00
2023-04-04T11:06:19.216Z,7788.00
2023-04-04T11:07:19.247Z,7822.00
2023-04-04T11:08:19.172Z,7864.00
2023-04-04T11:09:19.129Z,7972.00
2023-04-04T11:10:19.112Z,8147.00
2023-04-04T11:11:22.654Z,8373.00
2023-04-04T11:12:19.117Z,8602.00
2023-04-04T11:13:19.103Z,8858.00
2023-04-04T11:14:19.041Z,9108.00
2023-04-04T11:15:19.066Z,9363.00
2023-04-04T11:16:19.074Z,9644.00
2023-04-04T11:17:18.987Z,9933.00
2023-04-04T11:18:30.716Z,10258.00
2023-04-04T11:19:19.981Z,10570.00
2023-04-04T11:20:18.989Z,10507.00
2023-04-04T11:21:18.959Z,10859.00
2023-04-04T11:22:18.942Z,11469.00
2023-04-04T11:23:18.914Z,11317.00
2023-04-04T11:24:18.912Z,11683.00
2023-04-04T11:25:18.913Z,12095.00
2023-04-04T11:26:18.895Z,12122.00
2023-04-04T11:27:18.849Z,12184.00
2023-04-04T11:28:18.894Z,12095.00
2023-04-04T11:29:18.825Z,11884.00
2023-04-04T11:30:18.814Z,11942.00
2023-04-04T11:31:18.961Z,12018.00
2023-04-04T11:32:18.845Z,11613.00
2023-04-04T11:33:18.809Z,10635.00
2023-04-04T11:34:18.784Z,11207.00
2023-04-04T11:35:18.715Z,11926.00
2023-04-04T11:36:18.799Z,12038.00
2023-04-04T11:37:18.757Z,12667.00
2023-04-04T11:38:18.696Z,12871.00
2023-04-04T11:39:18.686Z,12471.00
2023-04-04T11:40:18.673Z,12821.00
2023-04-04T11:41:19.994Z,12628.00
2023-04-04T11:42:18.688Z,12662.00
2023-04-04T11:43:18.698Z,12889.00
2023-04-04T11:44:18.619Z,13122.00
2023-04-04T11:45:18.589Z,13569.00
2023-04-04T11:46:18.658Z,14025.00
2023-04-04T11:47:18.551Z,14439.00
2023-04-04T11:48:18.615Z,14728.00
2023-04-04T11:49:18.635Z,15461.00
2023-04-04T11:50:18.536Z,15857.00
2023-04-04T11:51:18.552Z,15915.00
2023-04-04T11:52:18.513Z,16053.00
2023-04-04T11:53:18.472Z,16177.00
2023-04-04T11:54:18.514Z,15769.00
2023-04-04T11:55:18.559Z,15900.00
2023-04-04T11:56:18.485Z,16438.00
2023-04-04T11:57:18.439Z,16479.00
2023-04-04T11:58:18.424Z,16076.00
2023-04-04T11:59:18.430Z,15798.00
2023-04-04T12:00:18.439Z,16246.00
2023-04-04T12:01:18.410Z,16236.00
2023-04-04T12:02:18.418Z,16405.00
2023-04-04T12:03:18.774Z,16412.00
2023-04-04T12:04:18.376Z,16358.00
2023-04-04T12:05:18.397Z,16351.00
2023-04-04T12:06:18.357Z,16259.00
2023-04-04T12:07:18.392Z,16170.00
2023-04-04T12:08:18.346Z,16498.00
2023-04-04T12:09:18.286Z,15709.00
2023-04-04T12:10:18.263Z,13493.00
2023-04-04T12:11:18.275Z,11506.00
2023-04-04T12:12:18.253Z,11022.00
2023-04-04T12:13:18.251Z,11035.00
2023-04-04T12:14:18.237Z,10980.00
2023-04-04T12:15:18.216Z,11128.00
2023-04-04T12:16:18.208Z,11375.00
2023-04-04T12:17:18.156Z,11477.00
2023-04-04T12:18:18.178Z,11452.00
2023-04-04T12:19:18.152Z,11660.00
2023-04-04T12:20:18.153Z,11793.00
2023-04-04T12:21:18.119Z,11789.00
2023-04-04T12:22:18.125Z,11853.00
2023-04-04T12:23:18.127Z,11956.00
2023-04-04T12:24:18.075Z,12098.00
2023-04-04T12:25:18.176Z,12079.00
2023-04-04T12:26:18.074Z,12008.00
2023-04-04T12:27:18.008Z,12074.00
2023-04-04T12:28:18.052Z,12141.00
2023-04-04T12:29:18.032Z,12286.00
2023-04-04T12:30:17.994Z,12455.00